Time,TemperatureF,DewpointF,PressureIn,WindDirection,WindDirectionDegrees,WindSpeedMPH,WindSpeedGustMPH,Humidity,HourlyPrecipIn,Conditions,Clouds,dailyrainin,SoftwareType,DateUTC
2013-02-10 00:00:00,13.3,3.0,29.87,North,0,0.0,0.0,63,0.00,,,0.02,WUHU216HW,2013-02-10 05:00:00,
2013-02-10 00:01:00,13.3,3.0,29.87,North,0,0.0,0.0,63,0.00,,,0.00,WUHU216HW,2013-02-10 05:01:00,
2013-02-10 00:06:00,13.3,3.0,29.87,North,0,0.0,0.0,63,0.00,,,0.00,WUHU216HW,2013-02-10 05:06:00,
2013-02-10 00:11:00,13.5,3.2,29.87,North,0,0.0,0.0,63,0.00,,,0.00,WUHU216HW,2013-02-10 05:11:00,
2013-02-10 00:16:00,13.5,3.2,29.87,North,0,0.0,0.0,63,0.00,,,0.00,WUHU216HW,2013-02-10 05:16:00,
2013-02-10 00:21:00,13.3,3.0,29.87,North,0,0.0,0.0,63,0.00,,,0.00,WUHU216HW,2013-02-10 05:21:00,
2013-02-10 00:26:00,13.3,3.0,29.87,North,0,0.0,0.0,63,0.00,,,0.00,WUHU216HW,2013-02-10 05:26:00,
2013-02-10 00:31:00,13.3,3.3,29.87,North,0,0.0,0.0,64,0.00,,,0.00,WUHU216HW,2013-02-10 05:31:00,
2013-02-10 00:36:00,13.1,3.2,29.87,North,0,0.0,0.0,64,0.00,,,0.00,WUHU216HW,2013-02-10 05:36:00,
2013-02-10 00:41:00,13.0,3.0,29.87,North,0,0.0,0.0,64,0.00,,,0.00,WUHU216HW,2013-02-10 05:41:00,
2013-02-10 00:46:00,13.0,3.0,29.87,North,0,0.0,0.0,64,0.00,,,0.00,WUHU216HW,2013-02-10 05:46:00,
2013-02-10 00:52:00,13.0,3.0,29.87,North,0,0.0,0.0,64,0.00,,,0.00,WUHU216HW,2013-02-10 05:52:00,
2013-02-10 00:57:00,13.1,3.2,29.88,North,0,0.0,0.0,64,0.00,,,0.00,WUHU216HW,2013-02-10 05:57:00,
2013-02-10 01:02:00,13.1,2.8,29.88,North,0,0.0,0.0,63,0.00,,,0.00,WUHU216HW,2013-02-10 06:02:00,
2013-02-10 01:07:00,13.3,3.0,29.88,North,0,0.0,0.0,63,0.00,,,0.00,WUHU216HW,2013-02-10 06:07:00,
2013-02-10 01:12:00,13.3,3.0,29.88,North,0,0.0,0.0,63,0.00,,,0.00,WUHU216HW,2013-02-10 06:12:00,
2013-02-10 01:17:00,13.1,2.8,29.88,North,0,0.0,0.0,63,0.00,,,0.00,WUHU216HW,2013-02-10 06:17:00,
2013-02-10 01:22:00,12.8,2.4,29.89,North,0,0.0,0.0,63,0.00,,,0.00,WUHU216HW,2013-02-10 06:22:00,
2013-02-10 01:27:00,12.6,2.3,29.89,North,0,0.0,0.0,63,0.00,,,0.00,WUHU216HW,2013-02-10 06:27:00,
2013-02-10 01:33:00,12.6,2.3,29.89,North,0,0.0,0.0,63,0.00,,,0.00,WUHU216HW,2013-02-10 06:33:00,
2013-02-10 01:38:00,12.2,2.3,29.89,North,0,0.0,0.0,64,0.00,,,0.00,WUHU216HW,2013-02-10 06:38:00,
2013-02-10 01:43:00,12.2,2.3,29.89,North,0,0.0,0.0,64,0.00,,,0.00,WUHU216HW,2013-02-10 06:43:00,
2013-02-10 01:48:00,12.2,2.3,29.90,North,0,0.0,0.0,64,0.00,,,0.00,WUHU216HW,2013-02-10 06:48:00,
2013-02-10 01:53:00,12.2,2.3,29.90,North,0,0.0,0.0,64,0.00,,,0.00,WUHU216HW,2013-02-10 06:53:00,
2013-02-10 01:58:00,12.2,2.3,29.89,North,0,0.0,0.0,64,0.00,,,0.00,WUHU216HW,2013-02-10 06:58:00,
2013-02-10 02:03:00,11.9,1.9,29.90,North,0,0.0,0.0,64,0.00,,,0.00,WUHU216HW,2013-02-10 07:03:00,
2013-02-10 02:09:00,11.5,1.6,29.89,North,0,0.0,0.0,64,0.00,,,0.00,WUHU216HW,2013-02-10 07:09:00,
2013-02-10 02:14:00,11.2,1.3,29.90,North,0,0.0,0.0,64,0.00,,,0.00,WUHU216HW,2013-02-10 07:14:00,
2013-02-10 02:19:00,11.0,1.1,29.90,North,0,0.0,0.0,64,0.00,,,0.00,WUHU216HW,2013-02-10 07:19:00,
2013-02-10 02:24:00,10.6,0.7,29.90,North,0,0.0,0.0,64,0.00,,,0.00,WUHU216HW,2013-02-10 07:24:00,
2013-02-10 02:29:00,10.4,0.5,29.90,North,0,0.0,0.0,64,0.00,,,0.00,WUHU216HW,2013-02-10 07:29:00,
2013-02-10 02:34:00,10.1,0.3,29.90,North,0,0.0,0.0,64,0.00,,,0.00,WUHU216HW,2013-02-10 07:34:00,
2013-02-10 02:39:00,9.7,0.2,29.91,North,0,0.0,0.0,65,0.00,,,0.00,WUHU216HW,2013-02-10 07:39:00,
2013-02-10 02:44:00,9.7,0.2,29.91,North,0,0.0,0.0,65,0.00,,,0.00,WUHU216HW,2013-02-10 07:44:00,
2013-02-10 02:50:00,9.2,0.0,29.91,North,0,0.0,0.0,66,0.00,,,0.00,WUHU216HW,2013-02-10 07:50:00,
2013-02-10 02:55:00,8.8,-0.3,29.91,North,0,0.0,0.0,66,0.00,,,0.00,WUHU216HW,2013-02-10 07:55:00,
2013-02-10 03:00:00,8.5,-0.3,29.92,North,0,0.0,0.0,67,0.00,,,0.00,WUHU216HW,2013-02-10 08:00:00,
2013-02-10 03:05:00,8.3,-0.2,29.92,North,0,0.0,0.0,68,0.00,,,0.00,WUHU216HW,2013-02-10 08:05:00,
2013-02-10 03:10:00,7.9,-0.4,29.92,North,0,0.0,0.0,68,0.00,,,0.00,WUHU216HW,2013-02-10 08:10:00,
2013-02-10 03:15:00,7.9,-0.2,29.92,North,0,0.0,0.0,69,0.00,,,0.00,WUHU216HW,2013-02-10 08:15:00,
2013-02-10 03:20:00,7.7,-0.4,29.92,North,0,0.0,0.0,69,0.00,,,0.00,WUHU216HW,2013-02-10 08:20:00,
2013-02-10 03:25:00,7.6,-0.2,29.92,North,0,0.0,0.0,70,0.00,,,0.00,WUHU216HW,2013-02-10 08:25:00,
2013-02-10 03:31:00,7.4,-0.4,29.92,North,0,0.0,0.0,70,0.00,,,0.00,WUHU216HW,2013-02-10 08:31:00,
2013-02-10 03:36:00,7.4,-0.4,29.92,North,0,0.0,0.0,70,0.00,,,0.00,WUHU216HW,2013-02-10 08:36:00,
2013-02-10 03:41:00,7.2,-0.5,29.92,North,0,0.0,0.0,70,0.00,,,0.00,WUHU216HW,2013-02-10 08:41:00,
2013-02-10 03:46:00,7.0,-0.7,29.92,North,0,0.0,0.0,70,0.00,,,0.00,WUHU216HW,2013-02-10 08:46:00,
2013-02-10 03:51:00,6.8,-0.9,29.93,North,0,0.0,0.0,70,0.00,,,0.00,WUHU216HW,2013-02-10 08:51:00,
2013-02-10 03:56:00,6.8,-0.9,29.93,North,0,0.0,0.0,70,0.00,,,0.00,WUHU216HW,2013-02-10 08:56:00,
2013-02-10 04:01:00,6.5,-1.3,29.92,North,0,0.0,0.0,70,0.00,,,0.00,WUHU216HW,2013-02-10 09:01:00,
2013-02-10 04:06:00,6.5,-1.3,29.92,North,0,0.0,0.0,70,0.00,,,0.00,WUHU216HW,2013-02-10 09:06:00,
2013-02-10 04:12:00,6.3,-1.4,29.92,North,0,0.0,0.0,70,0.00,,,0.00,WUHU216HW,2013-02-10 09:12:00,
2013-02-10 04:17:00,6.1,-1.6,29.93,North,0,0.0,0.0,70,0.00,,,0.00,WUHU216HW,2013-02-10 09:17:00,
2013-02-10 04:22:00,6.1,-1.6,29.93,North,0,0.0,0.0,70,0.00,,,0.00,WUHU216HW,2013-02-10 09:22:00,
2013-02-10 04:27:00,5.8,-2.0,29.94,North,0,0.0,0.0,70,0.00,,,0.00,WUHU216HW,2013-02-10 09:27:00,
2013-02-10 04:32:00,5.4,-2.3,29.94,North,0,0.0,0.0,70,0.00,,,0.00,WUHU216HW,2013-02-10 09:32:00,
2013-02-10 04:37:00,5.2,-2.5,29.95,North,0,0.0,0.0,70,0.00,,,0.00,WUHU216HW,2013-02-10 09:37:00,
2013-02-10 04:42:00,4.9,-2.9,29.95,North,0,0.0,0.0,70,0.00,,,0.00,WUHU216HW,2013-02-10 09:42:00,
2013-02-10 04:47:00,4.7,-3.1,29.95,North,0,0.0,0.0,70,0.00,,,0.00,WUHU216HW,2013-02-10 09:47:00,
2013-02-10 04:52:00,4.5,-3.1,29.95,North,0,0.0,0.0,70,0.00,,,0.00,WUHU216HW,2013-02-10 09:52:00,
2013-02-10 04:58:00,4.1,-3.5,29.95,North,0,0.0,0.0,70,0.00,,,0.00,WUHU216HW,2013-02-10 09:58:00,
2013-02-10 05:03:00,4.0,-3.4,29.95,North,0,0.0,0.0,71,0.00,,,0.00,WUHU216HW,2013-02-10 10:03:00,
2013-02-10 05:08:00,3.6,-3.7,29.95,North,0,0.0,0.0,71,0.00,,,0.00,WUHU216HW,2013-02-10 10:08:00,
2013-02-10 05:13:00,3.2,-4.0,29.95,North,0,0.0,0.0,71,0.00,,,0.00,WUHU216HW,2013-02-10 10:13:00,
2013-02-10 05:18:00,3.2,-4.0,29.96,North,0,0.0,0.0,71,0.00,,,0.00,WUHU216HW,2013-02-10 10:18:00,
2013-02-10 05:23:00,3.1,-4.2,29.96,North,0,0.0,0.0,71,0.00,,,0.00,WUHU216HW,2013-02-10 10:23:00,
2013-02-10 05:28:00,2.9,-4.4,29.96,North,0,0.0,0.0,71,0.00,,,0.00,WUHU216HW,2013-02-10 10:28:00,
2013-02-10 05:33:00,2.5,-4.8,29.96,North,0,0.0,0.0,71,0.00,,,0.00,WUHU216HW,2013-02-10 10:33:00,
2013-02-10 05:38:00,2.5,-4.5,29.96,North,0,0.0,0.0,72,0.00,,,0.00,WUHU216HW,2013-02-10 10:38:00,
2013-02-10 05:44:00,2.2,-5.1,29.96,North,0,0.0,0.0,71,0.00,,,0.00,WUHU216HW,2013-02-10 10:44:00,
2013-02-10 05:49:00,2.2,-5.1,29.97,North,0,0.0,0.0,71,0.00,,,0.00,WUHU216HW,2013-02-10 10:49:00,
2013-02-10 05:54:00,1.8,-5.2,29.97,North,0,0.0,0.0,72,0.00,,,0.00,WUHU216HW,2013-02-10 10:54:00,
2013-02-10 05:59:00,1.6,-5.4,29.97,North,0,0.0,0.0,72,0.00,,,0.00,WUHU216HW,2013-02-10 10:59:00,
2013-02-10 06:04:00,1.4,-5.6,29.97,North,0,0.0,0.0,72,0.00,,,0.00,WUHU216HW,2013-02-10 11:04:00,
2013-02-10 06:09:00,1.4,-5.6,29.97,North,0,0.0,0.0,72,0.00,,,0.00,WUHU216HW,2013-02-10 11:09:00,
2013-02-10 06:14:00,1.3,-5.5,29.98,North,0,0.0,0.0,73,0.00,,,0.00,WUHU216HW,2013-02-10 11:14:00,
2013-02-10 06:19:00,1.1,-5.7,29.97,North,0,0.0,0.0,73,0.00,,,0.00,WUHU216HW,2013-02-10 11:19:00,
2013-02-10 06:24:00,1.1,-5.7,29.98,North,0,0.0,0.0,73,0.00,,,0.00,WUHU216HW,2013-02-10 11:24:00,
2013-02-10 06:30:00,0.9,-5.8,29.97,North,0,0.0,0.0,73,0.00,,,0.00,WUHU216HW,2013-02-10 11:30:00,
2013-02-10 06:35:00,0.7,-6.3,29.98,North,0,0.0,0.0,72,0.00,,,0.00,WUHU216HW,2013-02-10 11:35:00,
2013-02-10 06:40:00,0.7,-6.3,29.98,North,0,0.0,0.0,72,0.00,,,0.00,WUHU216HW,2013-02-10 11:40:00,
2013-02-10 06:45:00,0.4,-6.7,29.98,North,0,0.0,0.0,72,0.00,,,0.00,WUHU216HW,2013-02-10 11:45:00,
2013-02-10 06:50:00,0.4,-6.7,29.99,North,0,0.0,0.0,72,0.00,,,0.00,WUHU216HW,2013-02-10 11:50:00,
2013-02-10 06:55:00,0.0,-7.0,29.99,North,0,0.0,0.0,72,0.00,,,0.00,WUHU216HW,2013-02-10 11:55:00,
2013-02-10 07:00:00,0.0,-7.0,29.99,North,0,0.0,0.0,72,0.00,,,0.00,WUHU216HW,2013-02-10 12:00:00,
2013-02-10 07:05:00,-0.4,-7.4,29.99,North,0,0.0,0.0,72,0.00,,,0.00,WUHU216HW,2013-02-10 12:05:00,
2013-02-10 07:10:00,-0.2,-7.2,29.99,North,0,0.0,0.0,72,0.00,,,0.00,WUHU216HW,2013-02-10 12:10:00,
2013-02-10 07:16:00,-0.4,-7.0,30.00,North,0,0.0,0.0,73,0.00,,,0.00,WUHU216HW,2013-02-10 12:16:00,
2013-02-10 07:21:00,-0.4,-7.0,30.00,North,0,0.0,0.0,73,0.00,,,0.00,WUHU216HW,2013-02-10 12:21:00,
2013-02-10 07:26:00,-0.4,-7.0,30.00,North,0,0.0,0.0,73,0.00,,,0.00,WUHU216HW,2013-02-10 12:26:00,
2013-02-10 07:31:00,-0.2,-6.8,30.00,North,0,0.0,0.0,73,0.00,,,0.00,WUHU216HW,2013-02-10 12:31:00,
2013-02-10 07:36:00,-0.2,-6.8,30.01,North,0,0.0,0.0,73,0.00,,,0.00,WUHU216HW,2013-02-10 12:36:00,
2013-02-10 07:41:00,0.0,-6.4,30.01,North,0,0.0,0.0,74,0.00,,,0.00,WUHU216HW,2013-02-10 12:41:00,
2013-02-10 07:46:00,0.2,-6.2,30.01,North,0,0.0,0.0,74,0.00,,,0.00,WUHU216HW,2013-02-10 12:46:00,
2013-02-10 07:51:00,0.5,-5.9,30.01,North,0,0.0,0.0,74,0.00,,,0.00,WUHU216HW,2013-02-10 12:51:00,
2013-02-10 07:56:00,0.7,-5.8,30.01,North,0,0.0,0.0,74,0.00,,,0.00,WUHU216HW,2013-02-10 12:56:00,
2013-02-10 08:01:00,1.1,-5.1,30.02,North,0,0.0,0.0,75,0.00,,,0.00,WUHU216HW,2013-02-10 13:01:00,
2013-02-10 08:07:00,1.4,-4.8,30.02,North,0,0.0,0.0,75,0.00,,,0.00,WUHU216HW,2013-02-10 13:07:00,
2013-02-10 08:12:00,2.0,-4.2,30.03,North,0,0.0,0.0,75,0.00,,,0.00,WUHU216HW,2013-02-10 13:12:00,
2013-02-10 08:17:00,2.5,-3.7,30.03,North,0,0.0,0.0,75,0.00,,,0.00,WUHU216HW,2013-02-10 13:17:00,
2013-02-10 08:22:00,2.9,-3.1,30.03,North,0,0.0,0.0,76,0.00,,,0.00,WUHU216HW,2013-02-10 13:22:00,
2013-02-10 08:27:00,3.4,-2.5,30.03,North,0,0.0,0.0,76,0.00,,,0.00,WUHU216HW,2013-02-10 13:27:00,
2013-02-10 08:32:00,3.4,-2.5,30.03,North,0,0.0,0.0,76,0.00,,,0.00,WUHU216HW,2013-02-10 13:32:00,
2013-02-10 08:37:00,4.5,-1.5,30.03,North,0,0.0,0.0,76,0.00,,,0.00,WUHU216HW,2013-02-10 13:37:00,
2013-02-10 08:42:00,5.4,-0.6,30.03,North,0,0.0,0.0,76,0.00,,,0.00,WUHU216HW,2013-02-10 13:42:00,
2013-02-10 08:47:00,6.3,0.3,30.03,North,0,0.0,0.0,76,0.00,,,0.00,WUHU216HW,2013-02-10 13:47:00,
2013-02-10 08:52:00,7.6,1.8,30.03,North,0,0.0,0.0,77,0.00,,,0.00,WUHU216HW,2013-02-10 13:52:00,
2013-02-10 08:57:00,8.8,3.1,30.04,North,0,0.0,0.0,77,0.00,,,0.00,WUHU216HW,2013-02-10 13:57:00,
2013-02-10 09:02:00,10.1,4.2,30.04,North,0,0.0,0.0,77,0.00,,,0.00,WUHU216HW,2013-02-10 14:02:00,
2013-02-10 09:08:00,11.9,5.4,30.04,North,0,0.0,0.0,75,0.00,,,0.00,WUHU216HW,2013-02-10 14:08:00,
2013-02-10 09:13:00,13.5,5.6,30.04,North,0,0.0,0.0,70,0.00,,,0.00,WUHU216HW,2013-02-10 14:13:00,
2013-02-10 09:18:00,15.5,7.4,30.04,North,0,0.0,0.0,70,0.00,,,0.00,WUHU216HW,2013-02-10 14:18:00,
2013-02-10 09:23:00,17.1,8.0,30.04,North,0,0.0,0.0,67,0.00,,,0.00,WUHU216HW,2013-02-10 14:23:00,
2013-02-10 09:28:00,18.5,9.0,30.04,North,0,0.0,0.0,66,0.00,,,0.00,WUHU216HW,2013-02-10 14:28:00,
2013-02-10 09:33:00,19.8,9.8,30.04,North,0,0.0,0.0,65,0.00,,,0.00,WUHU216HW,2013-02-10 14:33:00,
2013-02-10 09:38:00,20.9,8.7,30.05,North,0,0.0,0.0,59,0.00,,,0.00,WUHU216HW,2013-02-10 14:38:00,
2013-02-10 09:43:00,22.0,9.8,30.05,North,0,0.0,0.0,59,0.00,,,0.00,WUHU216HW,2013-02-10 14:43:00,
2013-02-10 09:48:00,23.2,11.3,30.05,North,0,0.0,0.0,60,0.00,,,0.00,WUHU216HW,2013-02-10 14:48:00,
2013-02-10 09:53:00,24.1,11.4,30.05,North,0,0.0,0.0,58,0.00,,,0.00,WUHU216HW,2013-02-10 14:53:00,
2013-02-10 09:58:00,24.8,11.7,30.05,North,0,0.0,0.0,57,0.00,,,0.00,WUHU216HW,2013-02-10 14:58:00,
2013-02-10 10:03:00,25.6,10.3,30.05,North,0,0.0,0.0,52,0.00,,,0.00,WUHU216HW,2013-02-10 15:03:00,
2013-02-10 10:08:00,26.1,10.4,30.05,North,0,0.0,0.0,51,0.00,,,0.00,WUHU216HW,2013-02-10 15:08:00,
2013-02-10 10:13:00,26.8,10.6,30.05,North,0,0.0,0.0,50,0.00,,,0.00,WUHU216HW,2013-02-10 15:13:00,
2013-02-10 10:18:00,27.5,11.8,30.05,North,0,0.0,0.0,51,0.00,,,0.00,WUHU216HW,2013-02-10 15:18:00,
2013-02-10 10:24:00,28.4,11.7,30.05,North,0,0.0,0.0,49,0.00,,,0.00,WUHU216HW,2013-02-10 15:24:00,
2013-02-10 10:29:00,29.2,12.9,30.05,North,0,0.0,0.0,50,0.00,,,0.00,WUHU216HW,2013-02-10 15:29:00,
2013-02-10 10:34:00,29.9,14.0,30.05,North,0,0.0,0.0,51,0.00,,,0.00,WUHU216HW,2013-02-10 15:34:00,
2013-02-10 10:39:00,30.8,14.8,30.05,North,0,0.0,0.0,51,0.00,,,0.00,WUHU216HW,2013-02-10 15:39:00,
2013-02-10 10:44:00,31.7,15.6,30.05,North,0,0.0,0.0,51,0.00,,,0.00,WUHU216HW,2013-02-10 15:44:00,
2013-02-10 10:49:00,32.0,14.5,30.05,North,0,0.0,0.0,48,0.00,,,0.00,WUHU216HW,2013-02-10 15:49:00,
2013-02-10 10:54:00,32.6,14.9,30.05,North,0,0.0,0.0,48,0.00,,,0.00,WUHU216HW,2013-02-10 15:54:00,
2013-02-10 10:59:00,32.4,13.8,30.06,North,0,0.0,0.0,46,0.00,,,0.00,WUHU216HW,2013-02-10 15:59:00,
2013-02-10 11:04:00,32.2,14.1,30.06,North,0,0.0,0.0,47,0.00,,,0.00,WUHU216HW,2013-02-10 16:04:00,
2013-02-10 11:09:00,31.9,12.8,30.05,North,0,0.0,0.0,45,0.00,,,0.00,WUHU216HW,2013-02-10 16:09:00,
2013-02-10 11:15:00,31.9,12.3,30.06,North,0,0.0,0.0,44,0.00,,,0.00,WUHU216HW,2013-02-10 16:15:00,
2013-02-10 11:20:00,32.0,13.0,30.06,North,0,0.0,0.0,45,0.01,,,0.01,WUHU216HW,2013-02-10 16:20:00,
2013-02-10 11:25:00,32.4,13.3,30.05,North,0,0.0,0.0,45,0.01,,,0.01,WUHU216HW,2013-02-10 16:25:00,
2013-02-10 11:30:00,32.8,13.6,30.05,North,0,0.0,0.0,45,0.01,,,0.01,WUHU216HW,2013-02-10 16:30:00,
2013-02-10 11:35:00,33.5,15.3,30.05,North,0,0.0,0.0,47,0.01,,,0.01,WUHU216HW,2013-02-10 16:35:00,
2013-02-10 11:40:00,34.0,14.8,30.05,North,0,0.0,0.0,45,0.01,,,0.01,WUHU216HW,2013-02-10 16:40:00,
2013-02-10 11:45:00,34.0,14.8,30.05,North,0,0.0,0.0,45,0.01,,,0.01,WUHU216HW,2013-02-10 16:45:00,
2013-02-10 11:50:00,34.2,14.0,30.05,North,0,0.0,0.0,43,0.02,,,0.02,WUHU216HW,2013-02-10 16:50:00,
2013-02-10 11:55:00,34.6,14.8,30.05,North,0,0.0,0.0,44,0.02,,,0.02,WUHU216HW,2013-02-10 16:55:00,
2013-02-10 12:00:00,34.7,12.9,30.04,North,0,0.0,0.0,40,0.02,,,0.02,WUHU216HW,2013-02-10 17:00:00,
2013-02-10 12:05:00,34.7,13.9,30.04,North,0,0.0,0.0,42,0.02,,,0.02,WUHU216HW,2013-02-10 17:05:00,
2013-02-10 12:10:00,35.6,14.2,30.04,North,0,0.0,0.0,41,0.02,,,0.02,WUHU216HW,2013-02-10 17:10:00,
2013-02-10 12:15:00,36.4,16.9,30.04,North,0,0.0,0.0,45,0.03,,,0.03,WUHU216HW,2013-02-10 17:15:00,
2013-02-10 12:21:00,36.7,16.2,30.04,North,0,0.0,0.0,43,0.02,,,0.03,WUHU216HW,2013-02-10 17:21:00,
2013-02-10 12:26:00,36.5,15.6,30.03,North,0,0.0,0.0,42,0.02,,,0.03,WUHU216HW,2013-02-10 17:26:00,
2013-02-10 12:31:00,36.7,15.7,30.03,North,0,0.0,0.0,42,0.02,,,0.03,WUHU216HW,2013-02-10 17:31:00,
2013-02-10 12:36:00,37.1,16.6,30.03,North,0,0.0,0.0,43,0.03,,,0.04,WUHU216HW,2013-02-10 17:36:00,
2013-02-10 12:41:00,36.9,15.3,30.03,North,0,0.0,0.0,41,0.03,,,0.04,WUHU216HW,2013-02-10 17:41:00,
2013-02-10 12:46:00,37.1,16.6,30.03,North,0,0.0,0.0,43,0.02,,,0.04,WUHU216HW,2013-02-10 17:46:00,
2013-02-10 12:51:00,36.9,15.8,30.02,North,0,0.0,0.0,42,0.02,,,0.04,WUHU216HW,2013-02-10 17:51:00,
2013-02-10 12:56:00,36.9,16.4,30.01,North,0,0.0,0.0,43,0.03,,,0.05,WUHU216HW,2013-02-10 17:56:00,
2013-02-10 13:01:00,37.6,16.5,30.01,North,0,0.0,0.0,42,0.03,,,0.05,WUHU216HW,2013-02-10 18:01:00,
2013-02-10 13:06:00,37.4,15.3,30.01,North,0,0.0,0.0,40,0.03,,,0.05,WUHU216HW,2013-02-10 18:06:00,
2013-02-10 13:11:00,37.4,15.9,30.01,North,0,0.0,0.0,41,0.03,,,0.05,WUHU216HW,2013-02-10 18:11:00,
2013-02-10 13:16:00,37.6,15.5,30.00,North,0,0.0,0.0,40,0.02,,,0.05,WUHU216HW,2013-02-10 18:16:00,
2013-02-10 13:21:00,37.4,15.9,30.00,North,0,0.0,0.0,41,0.02,,,0.05,WUHU216HW,2013-02-10 18:21:00,
2013-02-10 13:26:00,37.4,15.3,30.00,North,0,0.0,0.0,40,0.02,,,0.05,WUHU216HW,2013-02-10 18:26:00,
2013-02-10 13:31:00,37.1,13.7,30.00,North,0,0.0,0.0,38,0.02,,,0.05,WUHU216HW,2013-02-10 18:31:00,
2013-02-10 13:36:00,36.9,12.9,30.00,North,0,0.0,0.0,37,0.01,,,0.05,WUHU216HW,2013-02-10 18:36:00,
2013-02-10 13:41:00,36.5,12.5,29.99,North,0,0.0,0.0,37,0.01,,,0.05,WUHU216HW,2013-02-10 18:41:00,
2013-02-10 13:46:00,36.0,11.4,29.99,North,0,0.0,0.0,36,0.01,,,0.05,WUHU216HW,2013-02-10 18:46:00,
2013-02-10 13:51:00,36.0,12.7,29.99,North,0,0.0,0.0,38,0.01,,,0.05,WUHU216HW,2013-02-10 18:51:00,
2013-02-10 13:56:00,36.2,12.3,29.99,North,0,0.0,0.0,37,0.00,,,0.05,WUHU216HW,2013-02-10 18:56:00,
2013-02-10 14:01:00,36.4,13.1,29.99,North,0,0.0,0.0,38,0.00,,,0.05,WUHU216HW,2013-02-10 19:01:00,
2013-02-10 14:06:00,36.2,10.9,29.99,North,0,0.0,0.0,35,0.00,,,0.05,WUHU216HW,2013-02-10 19:06:00,
2013-02-10 14:11:00,36.0,11.4,29.99,North,0,0.0,0.0,36,0.00,,,0.05,WUHU216HW,2013-02-10 19:11:00,
2013-02-10 14:16:00,36.0,11.4,29.99,North,0,0.0,0.0,36,0.00,,,0.05,WUHU216HW,2013-02-10 19:16:00,
2013-02-10 14:21:00,36.0,11.4,29.98,North,0,0.0,0.0,36,0.00,,,0.05,WUHU216HW,2013-02-10 19:21:00,
2013-02-10 14:26:00,35.6,9.2,29.99,North,0,0.0,0.0,33,0.00,,,0.05,WUHU216HW,2013-02-10 19:26:00,
2013-02-10 14:31:00,35.6,10.4,30.00,North,0,0.0,0.0,35,0.00,,,0.05,WUHU216HW,2013-02-10 19:31:00,
2013-02-10 14:37:00,35.6,9.8,29.99,North,0,0.0,0.0,34,0.00,,,0.05,WUHU216HW,2013-02-10 19:37:00,
2013-02-10 14:42:00,35.8,10.6,30.00,North,0,0.0,0.0,35,0.00,,,0.05,WUHU216HW,2013-02-10 19:42:00,
2013-02-10 14:47:00,35.8,10.0,29.99,North,0,0.0,0.0,34,0.00,,,0.05,WUHU216HW,2013-02-10 19:47:00,
2013-02-10 14:52:00,35.6,10.4,29.99,North,0,0.0,0.0,35,0.00,,,0.05,WUHU216HW,2013-02-10 19:52:00,
2013-02-10 14:57:00,35.6,10.4,29.99,North,0,0.0,0.0,35,0.00,,,0.05,WUHU216HW,2013-02-10 19:57:00,
2013-02-10 15:02:00,35.6,11.1,29.99,North,0,0.0,0.0,36,0.00,,,0.05,WUHU216HW,2013-02-10 20:02:00,
2013-02-10 15:07:00,35.6,11.1,30.00,North,0,0.0,0.0,36,0.00,,,0.05,WUHU216HW,2013-02-10 20:07:00,
2013-02-10 15:12:00,35.6,11.7,30.00,North,0,0.0,0.0,37,0.00,,,0.05,WUHU216HW,2013-02-10 20:12:00,
2013-02-10 15:17:00,35.6,11.7,30.00,North,0,0.0,0.0,37,0.00,,,0.05,WUHU216HW,2013-02-10 20:17:00,
2013-02-10 15:22:00,35.8,11.9,30.01,North,0,0.0,0.0,37,0.00,,,0.05,WUHU216HW,2013-02-10 20:22:00,
2013-02-10 15:27:00,35.6,11.7,30.00,North,0,0.0,0.0,37,0.00,,,0.05,WUHU216HW,2013-02-10 20:27:00,
2013-02-10 15:32:00,35.6,11.1,30.01,North,0,0.0,0.0,36,0.00,,,0.05,WUHU216HW,2013-02-10 20:32:00,
2013-02-10 15:37:00,35.5,10.9,30.02,North,0,0.0,0.0,36,0.00,,,0.05,WUHU216HW,2013-02-10 20:37:00,
2013-02-10 15:42:00,35.5,10.9,30.01,North,0,0.0,0.0,36,0.00,,,0.05,WUHU216HW,2013-02-10 20:42:00,
2013-02-10 15:48:00,35.3,10.8,30.01,North,0,0.0,0.0,36,0.00,,,0.05,WUHU216HW,2013-02-10 20:48:00,
2013-02-10 15:53:00,35.1,10.6,30.02,North,0,0.0,0.0,36,0.00,,,0.05,WUHU216HW,2013-02-10 20:53:00,
2013-02-10 15:58:00,34.9,10.4,30.01,North,0,0.0,0.0,36,0.00,,,0.05,WUHU216HW,2013-02-10 20:58:00,
2013-02-10 16:03:00,34.7,11.6,30.01,North,0,0.0,0.0,38,0.00,,,0.05,WUHU216HW,2013-02-10 21:03:00,
2013-02-10 16:08:00,34.2,11.2,30.02,North,0,0.0,0.0,38,0.00,,,0.05,WUHU216HW,2013-02-10 21:08:00,
2013-02-10 16:13:00,33.8,11.4,30.02,North,0,0.0,0.0,39,0.00,,,0.05,WUHU216HW,2013-02-10 21:13:00,
2013-02-10 16:18:00,33.1,11.9,30.01,North,0,0.0,0.0,41,0.00,,,0.05,WUHU216HW,2013-02-10 21:18:00,
2013-02-10 16:23:00,32.8,11.6,30.00,North,0,0.0,0.0,41,0.00,,,0.05,WUHU216HW,2013-02-10 21:23:00,
2013-02-10 16:28:00,32.2,11.6,30.01,North,0,0.0,0.0,42,0.00,,,0.05,WUHU216HW,2013-02-10 21:28:00,
2013-02-10 16:33:00,32.0,11.0,30.01,North,0,0.0,0.0,41,0.00,,,0.05,WUHU216HW,2013-02-10 21:33:00,
2013-02-10 16:38:00,31.7,11.2,30.00,North,0,0.0,0.0,42,0.00,,,0.05,WUHU216HW,2013-02-10 21:38:00,
2013-02-10 16:43:00,31.3,11.4,30.00,North,0,0.0,0.0,43,0.00,,,0.05,WUHU216HW,2013-02-10 21:43:00,
2013-02-10 16:48:00,31.0,11.5,30.00,North,0,0.0,0.0,44,0.00,,,0.05,WUHU216HW,2013-02-10 21:48:00,
2013-02-10 16:53:00,30.6,11.7,30.00,North,0,0.0,0.0,45,0.00,,,0.05,WUHU216HW,2013-02-10 21:53:00,
2013-02-10 16:58:00,30.2,11.3,30.00,North,0,0.0,0.0,45,0.00,,,0.05,WUHU216HW,2013-02-10 21:58:00,
2013-02-10 17:03:00,29.9,11.0,30.00,North,0,0.0,0.0,45,0.00,,,0.05,WUHU216HW,2013-02-10 22:03:00,
2013-02-10 17:08:00,29.5,11.2,29.99,North,0,0.0,0.0,46,0.00,,,0.05,WUHU216HW,2013-02-10 22:08:00,
2013-02-10 17:13:00,29.0,10.7,30.00,North,0,0.0,0.0,46,0.00,,,0.05,WUHU216HW,2013-02-10 22:13:00,
2013-02-10 17:18:00,28.6,10.9,30.00,North,0,0.0,0.0,47,0.00,,,0.05,WUHU216HW,2013-02-10 22:18:00,
2013-02-10 17:23:00,28.1,10.9,30.01,North,0,0.0,0.0,48,0.00,,,0.05,WUHU216HW,2013-02-10 22:23:00,
2013-02-10 17:28:00,27.7,10.5,30.02,North,0,0.0,0.0,48,0.00,,,0.05,WUHU216HW,2013-02-10 22:28:00,
2013-02-10 17:33:00,27.5,10.4,30.02,North,0,0.0,0.0,48,0.00,,,0.05,WUHU216HW,2013-02-10 22:33:00,
2013-02-10 17:39:00,27.2,10.5,30.02,North,0,0.0,0.0,49,0.00,,,0.05,WUHU216HW,2013-02-10 22:39:00,
2013-02-10 17:44:00,26.8,10.2,30.02,North,0,0.0,0.0,49,0.00,,,0.05,WUHU216HW,2013-02-10 22:44:00,
2013-02-10 17:49:00,26.5,10.3,30.02,North,0,0.0,0.0,50,0.00,,,0.05,WUHU216HW,2013-02-10 22:49:00,
2013-02-10 17:54:00,26.1,10.4,30.02,North,0,0.0,0.0,51,0.00,,,0.05,WUHU216HW,2013-02-10 22:54:00,
2013-02-10 17:59:00,25.9,9.8,30.01,North,0,0.0,0.0,50,0.00,,,0.05,WUHU216HW,2013-02-10 22:59:00,
2013-02-10 18:04:00,25.6,9.5,30.01,North,0,0.0,0.0,50,0.00,,,0.05,WUHU216HW,2013-02-10 23:04:00,
2013-02-10 18:09:00,25.6,9.9,30.01,North,0,0.0,0.0,51,0.00,,,0.05,WUHU216HW,2013-02-10 23:09:00,
2013-02-10 18:14:00,25.4,9.7,30.00,North,0,0.0,0.0,51,0.00,,,0.05,WUHU216HW,2013-02-10 23:14:00,
2013-02-10 18:19:00,25.2,9.2,30.00,North,0,0.0,0.0,50,0.00,,,0.05,WUHU216HW,2013-02-10 23:19:00,
2013-02-10 18:24:00,25.0,9.0,30.00,North,0,0.0,0.0,50,0.00,,,0.05,WUHU216HW,2013-02-10 23:24:00,
2013-02-10 18:29:00,24.8,8.8,30.00,North,0,0.0,0.0,50,0.00,,,0.05,WUHU216HW,2013-02-10 23:29:00,
2013-02-10 18:35:00,24.7,8.6,30.00,North,0,0.0,0.0,50,0.00,,,0.05,WUHU216HW,2013-02-10 23:35:00,
2013-02-10 18:40:00,24.3,8.7,30.00,North,0,0.0,0.0,51,0.00,,,0.05,WUHU216HW,2013-02-10 23:40:00,
2013-02-10 18:45:00,24.1,8.6,30.00,North,0,0.0,0.0,51,0.00,,,0.05,WUHU216HW,2013-02-10 23:45:00,
2013-02-10 18:50:00,23.9,8.8,30.00,North,0,0.0,0.0,52,0.00,,,0.05,WUHU216HW,2013-02-10 23:50:00,
2013-02-10 18:55:00,23.6,8.5,30.01,North,0,0.0,0.0,52,0.00,,,0.05,WUHU216HW,2013-02-10 23:55:00,
2013-02-10 19:00:00,23.4,8.3,30.01,North,0,0.0,0.0,52,0.00,,,0.05,WUHU216HW,2013-02-11 00:00:00,
2013-02-10 19:05:00,23.0,8.4,30.01,North,0,0.0,0.0,53,0.00,,,0.05,WUHU216HW,2013-02-11 00:05:00,
2013-02-10 19:10:00,22.7,8.5,30.01,North,0,0.0,0.0,54,0.00,,,0.05,WUHU216HW,2013-02-11 00:10:00,
2013-02-10 19:15:00,22.5,8.3,30.01,North,0,0.0,0.0,54,0.00,,,0.05,WUHU216HW,2013-02-11 00:15:00,
2013-02-10 19:20:00,22.3,8.5,30.01,North,0,0.0,0.0,55,0.00,,,0.05,WUHU216HW,2013-02-11 00:20:00,
2013-02-10 19:26:00,22.1,8.4,30.01,North,0,0.0,0.0,55,0.00,,,0.05,WUHU216HW,2013-02-11 00:26:00,
2013-02-10 19:31:00,21.8,8.0,30.02,North,0,0.0,0.0,55,0.00,,,0.05,WUHU216HW,2013-02-11 00:31:00,
2013-02-10 19:36:00,21.6,7.8,30.02,North,0,0.0,0.0,55,0.00,,,0.05,WUHU216HW,2013-02-11 00:36:00,
2013-02-10 19:41:00,21.2,7.9,30.02,North,0,0.0,0.0,56,0.00,,,0.05,WUHU216HW,2013-02-11 00:41:00,
2013-02-10 19:46:00,21.1,7.8,30.02,North,0,0.0,0.0,56,0.00,,,0.05,WUHU216HW,2013-02-11 00:46:00,
2013-02-10 19:51:00,20.7,7.4,30.02,North,0,0.0,0.0,56,0.00,,,0.05,WUHU216HW,2013-02-11 00:51:00,
2013-02-10 19:56:00,20.3,7.4,30.01,North,0,0.0,0.0,57,0.00,,,0.05,WUHU216HW,2013-02-11 00:56:00,
2013-02-10 20:02:00,20.0,7.1,30.01,North,0,0.0,0.0,57,0.00,,,0.05,WUHU216HW,2013-02-11 01:02:00,
2013-02-10 20:07:00,19.8,6.9,30.01,North,0,0.0,0.0,57,0.00,,,0.05,WUHU216HW,2013-02-11 01:07:00,
2013-02-10 20:12:00,19.4,6.9,30.01,North,0,0.0,0.0,58,0.00,,,0.05,WUHU216HW,2013-02-11 01:12:00,
2013-02-10 20:17:00,19.4,6.9,30.01,North,0,0.0,0.0,58,0.00,,,0.05,WUHU216HW,2013-02-11 01:17:00,
2013-02-10 20:22:00,19.1,7.4,30.01,North,0,0.0,0.0,60,0.00,,,0.05,WUHU216HW,2013-02-11 01:22:00,
2013-02-10 20:27:00,18.9,7.3,30.01,North,0,0.0,0.0,60,0.00,,,0.05,WUHU216HW,2013-02-11 01:27:00,
2013-02-10 20:32:00,18.7,7.1,30.00,North,0,0.0,0.0,60,0.00,,,0.05,WUHU216HW,2013-02-11 01:32:00,
2013-02-10 20:38:00,18.4,6.8,30.00,North,0,0.0,0.0,60,0.00,,,0.05,WUHU216HW,2013-02-11 01:38:00,
2013-02-10 20:43:00,18.2,6.9,30.00,North,0,0.0,0.0,61,0.00,,,0.05,WUHU216HW,2013-02-11 01:43:00,
2013-02-10 20:48:00,18.0,6.8,30.00,North,0,0.0,0.0,61,0.00,,,0.05,WUHU216HW,2013-02-11 01:48:00,
2013-02-10 20:53:00,17.8,6.7,30.00,North,0,0.0,0.0,61,0.00,,,0.05,WUHU216HW,2013-02-11 01:53:00,
2013-02-10 20:58:00,17.6,6.5,30.00,North,0,0.0,0.0,61,0.00,,,0.05,WUHU216HW,2013-02-11 01:58:00,
2013-02-10 21:03:00,17.6,6.5,30.01,North,0,0.0,0.0,61,0.00,,,0.05,WUHU216HW,2013-02-11 02:03:00,
2013-02-10 21:08:00,17.5,6.3,30.00,North,0,0.0,0.0,61,0.00,,,0.05,WUHU216HW,2013-02-11 02:08:00,
2013-02-10 21:13:00,17.3,6.5,30.01,North,0,0.0,0.0,62,0.00,,,0.05,WUHU216HW,2013-02-11 02:13:00,
2013-02-10 21:19:00,17.1,6.6,30.01,North,0,0.0,0.0,63,0.00,,,0.05,WUHU216HW,2013-02-11 02:19:00,
2013-02-10 21:24:00,16.9,6.4,30.00,North,0,0.0,0.0,63,0.00,,,0.05,WUHU216HW,2013-02-11 02:24:00,
2013-02-10 21:29:00,16.9,6.4,30.01,North,0,0.0,0.0,63,0.00,,,0.05,WUHU216HW,2013-02-11 02:29:00,
2013-02-10 21:34:00,16.4,6.2,30.01,North,0,0.0,0.0,64,0.00,,,0.05,WUHU216HW,2013-02-11 02:34:00,
2013-02-10 21:39:00,16.2,6.8,30.01,North,0,0.0,0.0,66,0.00,,,0.05,WUHU216HW,2013-02-11 02:39:00,
2013-02-10 21:44:00,15.8,6.4,30.00,North,0,0.0,0.0,66,0.00,,,0.05,WUHU216HW,2013-02-11 02:44:00,
2013-02-10 21:49:00,15.7,5.9,30.00,North,0,0.0,0.0,65,0.00,,,0.05,WUHU216HW,2013-02-11 02:49:00,
2013-02-10 21:54:00,15.5,5.7,30.00,North,0,0.0,0.0,65,0.00,,,0.05,WUHU216HW,2013-02-11 02:54:00,
2013-02-10 22:00:00,15.3,5.6,30.00,North,0,0.0,0.0,65,0.00,,,0.05,WUHU216HW,2013-02-11 03:00:00,
2013-02-10 22:05:00,15.1,5.4,30.00,North,0,0.0,0.0,65,0.00,,,0.05,WUHU216HW,2013-02-11 03:05:00,
2013-02-10 22:10:00,14.8,5.4,30.00,North,0,0.0,0.0,66,0.00,,,0.05,WUHU216HW,2013-02-11 03:10:00,
2013-02-10 22:15:00,14.8,5.4,30.00,North,0,0.0,0.0,66,0.00,,,0.05,WUHU216HW,2013-02-11 03:15:00,
2013-02-10 22:20:00,14.6,5.2,30.00,North,0,0.0,0.0,66,0.00,,,0.05,WUHU216HW,2013-02-11 03:20:00,
2013-02-10 22:25:00,14.2,5.0,30.00,North,0,0.0,0.0,66,0.00,,,0.05,WUHU216HW,2013-02-11 03:25:00,
2013-02-10 22:30:00,14.0,4.8,30.00,North,0,0.0,0.0,66,0.00,,,0.05,WUHU216HW,2013-02-11 03:30:00,
2013-02-10 22:35:00,14.0,4.8,30.00,North,0,0.0,0.0,66,0.00,,,0.05,WUHU216HW,2013-02-11 03:35:00,
2013-02-10 22:40:00,13.5,4.6,30.00,North,0,0.0,0.0,67,0.00,,,0.05,WUHU216HW,2013-02-11 03:40:00,
2013-02-10 22:45:00,13.3,4.4,30.00,North,0,0.0,0.0,67,0.00,,,0.05,WUHU216HW,2013-02-11 03:45:00,
2013-02-10 22:51:00,13.3,4.4,30.00,North,0,0.0,0.0,67,0.00,,,0.05,WUHU216HW,2013-02-11 03:51:00,
2013-02-10 22:56:00,13.1,4.2,30.00,North,0,0.0,0.0,67,0.00,,,0.05,WUHU216HW,2013-02-11 03:56:00,
2013-02-10 23:01:00,13.0,4.1,30.00,North,0,0.0,0.0,67,0.00,,,0.05,WUHU216HW,2013-02-11 04:01:00,
2013-02-10 23:06:00,12.6,4.0,30.00,North,0,0.0,0.0,68,0.00,,,0.05,WUHU216HW,2013-02-11 04:06:00,
2013-02-10 23:11:00,12.6,4.0,30.00,North,0,0.0,0.0,68,0.00,,,0.05,WUHU216HW,2013-02-11 04:11:00,
2013-02-10 23:16:00,12.2,3.6,30.00,North,0,0.0,0.0,68,0.00,,,0.05,WUHU216HW,2013-02-11 04:16:00,
2013-02-10 23:21:00,11.9,3.2,30.00,North,0,0.0,0.0,68,0.00,,,0.05,WUHU216HW,2013-02-11 04:21:00,
2013-02-10 23:26:00,11.7,3.2,30.00,North,0,0.0,0.0,68,0.00,,,0.05,WUHU216HW,2013-02-11 04:26:00,
2013-02-10 23:31:00,11.7,3.4,30.00,North,0,0.0,0.0,69,0.00,,,0.05,WUHU216HW,2013-02-11 04:31:00,
2013-02-10 23:36:00,11.7,3.4,30.01,North,0,0.0,0.0,69,0.00,,,0.05,WUHU216HW,2013-02-11 04:36:00,
2013-02-10 23:42:00,11.5,3.2,30.00,North,0,0.0,0.0,69,0.00,,,0.05,WUHU216HW,2013-02-11 04:42:00,
2013-02-10 23:47:00,11.5,3.2,30.00,North,0,0.0,0.0,69,0.00,,,0.05,WUHU216HW,2013-02-11 04:47:00,
2013-02-10 23:52:00,11.3,3.1,30.00,North,0,0.0,0.0,69,0.00,,,0.05,WUHU216HW,2013-02-11 04:52:00,
2013-02-10 23:57:00,11.2,2.9,30.00,North,0,0.0,0.0,69,0.00,,,0.05,WUHU216HW,2013-02-11 04:57:00,